createdAt,value
2022-09-04T00:00:02.678Z,938.57
2022-09-04T00:01:03.569Z,938.55
2022-09-04T00:02:04.283Z,938.59
2022-09-04T00:03:05.184Z,938.6
2022-09-04T00:04:05.586Z,938.55
2022-09-04T00:05:06.578Z,938.54
2022-09-04T00:06:06.567Z,938.55
2022-09-04T00:07:07.192Z,938.55
2022-09-04T00:08:07.391Z,938.56
2022-09-04T00:09:07.702Z,938.59
2022-09-04T00:10:08.598Z,938.59
2022-09-04T00:11:09.490Z,938.58
2022-09-04T00:12:10.444Z,938.56
2022-09-04T00:13:10.719Z,938.59
2022-09-04T00:14:11.338Z,938.58
2022-09-04T00:15:11.831Z,938.58
2022-09-04T00:16:12.410Z,938.59
2022-09-04T00:17:12.500Z,938.58
2022-09-04T00:18:12.695Z,938.62
2022-09-04T00:19:13.786Z,938.63
2022-09-04T00:20:14.682Z,938.62
2022-09-04T00:21:15.743Z,938.65
2022-09-04T00:22:16.732Z,938.62
2022-09-04T00:23:17.655Z,938.64
2022-09-04T00:24:18.555Z,938.7
2022-09-04T00:25:19.043Z,938.68
2022-09-04T00:26:20.835Z,938.65
2022-09-04T00:27:20.132Z,938.67
2022-09-04T00:28:20.800Z,938.64
2022-09-04T00:29:21.443Z,938.71
2022-09-04T00:30:21.666Z,938.74
2022-09-04T00:31:22.081Z,938.75
2022-09-04T00:32:22.386Z,938.73
2022-09-04T00:33:23.330Z,938.75
2022-09-04T00:34:24.223Z,938.75
2022-09-04T00:35:24.844Z,938.76
2022-09-04T00:36:25.048Z,938.77
2022-09-04T00:37:25.266Z,938.78
2022-09-04T00:38:26.254Z,938.76
2022-09-04T00:39:27.229Z,938.75
2022-09-04T00:40:27.697Z,938.76
2022-09-04T00:41:28.286Z,938.79
2022-09-04T00:42:28.996Z,938.77
2022-09-04T00:43:29.641Z,938.8
2022-09-04T00:44:30.136Z,938.81
2022-09-04T00:45:31.105Z,938.77
2022-09-04T00:46:31.991Z,938.8
2022-09-04T00:47:32.646Z,938.79
2022-09-04T00:48:33.583Z,938.81
2022-09-04T00:49:34.479Z,938.82
2022-09-04T00:50:35.402Z,938.84
2022-09-04T00:51:36.323Z,938.78
2022-09-04T00:52:37.802Z,938.84
2022-09-04T00:53:38.607Z,938.77
2022-09-04T00:54:39.527Z,938.81
2022-09-04T00:55:40.148Z,938.85
2022-09-04T00:56:40.520Z,938.86
2022-09-04T00:57:40.743Z,938.85
2022-09-04T00:58:41.679Z,938.83
2022-09-04T00:59:42.305Z,938.82
2022-09-04T01:00:42.554Z,938.89
2022-09-04T01:01:43.004Z,938.86
2022-09-04T01:02:43.999Z,938.86
2022-09-04T01:03:44.164Z,938.86
2022-09-04T01:04:44.783Z,938.91
2022-09-04T01:05:45.081Z,938.87
2022-09-04T01:06:45.193Z,938.87
2022-09-04T01:07:45.925Z,938.84
2022-09-04T01:08:46.869Z,938.83
2022-09-04T01:09:47.731Z,938.86
2022-09-04T01:10:48.565Z,938.84
2022-09-04T01:11:48.776Z,938.83
2022-09-04T01:12:49.227Z,938.86
2022-09-04T01:13:50.126Z,938.84
2022-09-04T01:14:53.047Z,938.83
2022-09-04T01:15:50.763Z,938.82
2022-09-04T01:16:51.858Z,938.86
2022-09-04T01:17:51.931Z,938.83
2022-09-04T01:18:52.845Z,938.87
2022-09-04T01:19:53.338Z,938.89
2022-09-04T01:20:54.008Z,938.91
2022-09-04T01:21:54.929Z,938.92
2022-09-04T01:22:55.629Z,938.92
2022-09-04T01:23:56.564Z,938.94
2022-09-04T01:24:56.760Z,938.92
2022-09-04T01:25:57.375Z,938.92
2022-09-04T01:26:58.299Z,938.93
2022-09-04T01:27:58.920Z,938.92
2022-09-04T01:28:59.563Z,938.96
2022-09-04T01:30:00.559Z,938.94
2022-09-04T01:31:00.755Z,938.98
2022-09-04T01:32:01.478Z,938.97
2022-09-04T01:33:02.153Z,938.97
2022-09-04T01:34:03.060Z,938.99
2022-09-04T01:35:03.275Z,938.98
2022-09-04T01:36:04.172Z,939.03
2022-09-04T01:37:04.488Z,939.01
2022-09-04T01:39:05.597Z,939.01
2022-09-04T01:40:06.589Z,939.02
2022-09-04T01:41:06.786Z,939.01
2022-09-04T01:42:07.673Z,939.02
2022-09-04T01:43:08.154Z,939.01
2022-09-04T01:44:09.063Z,938.99
2022-09-04T01:45:09.969Z,938.99
2022-09-04T01:46:10.343Z,938.99
2022-09-04T01:47:11.306Z,939
2022-09-04T01:48:11.518Z,939
2022-09-04T01:49:12.479Z,939
2022-09-04T01:50:13.369Z,939.05
2022-09-04T01:51:13.564Z,939.06
2022-09-04T01:52:14.480Z,939.05
2022-09-04T01:53:14.812Z,939.03
2022-09-04T01:54:15.599Z,939.02
2022-09-04T01:55:16.226Z,939.05
2022-09-04T01:56:17.144Z,939.03
2022-09-04T01:57:17.336Z,939.01
2022-09-04T01:58:18.311Z,939.04
2022-09-04T01:59:18.795Z,939.01
2022-09-04T02:00:19.707Z,939.05
2022-09-04T02:01:21.102Z,939.05
2022-09-04T02:02:21.766Z,938.99
2022-09-04T02:03:22.012Z,939
2022-09-04T02:04:22.205Z,939.03
2022-09-04T02:05:22.399Z,939.02
2022-09-04T02:06:23.312Z,939.02
2022-09-04T02:07:23.929Z,939.06
2022-09-04T02:08:25.091Z,939.01
2022-09-04T02:09:25.079Z,939.06
2022-09-04T02:10:25.290Z,939.06
2022-09-04T02:11:27.742Z,939.06
2022-09-04T02:12:27.078Z,939.07
2022-09-04T02:13:27.495Z,939.08
2022-09-04T02:14:28.419Z,939.08
2022-09-04T02:15:29.356Z,939.09
2022-09-04T02:16:30.472Z,939.07
2022-09-04T02:17:30.684Z,939.06
2022-09-04T02:18:31.088Z,939.06
2022-09-04T02:19:31.291Z,939.08
2022-09-04T02:20:32.211Z,939.1
2022-09-04T02:21:33.101Z,939.1
2022-09-04T02:22:33.299Z,939.11
2022-09-04T02:23:34.040Z,939.09
2022-09-04T02:24:34.961Z,939.09
2022-09-04T02:25:35.456Z,939.12
2022-09-04T02:26:36.393Z,939.13
2022-09-04T02:27:36.585Z,939.13
2022-09-04T02:28:37.497Z,939.11
2022-09-04T02:29:38.113Z,939.09
2022-09-04T02:30:38.612Z,939.1
2022-09-04T02:31:39.215Z,939.07
2022-09-04T02:32:39.453Z,939.08
2022-09-04T02:33:39.598Z,939.1
2022-09-04T02:34:40.501Z,939.11
2022-09-04T02:35:40.713Z,939.12
2022-09-04T02:36:41.351Z,939.08
2022-09-04T02:37:41.577Z,939.12
2022-09-04T02:38:42.511Z,939.14
2022-09-04T02:39:42.733Z,939.09
2022-09-04T02:40:43.246Z,939.12
2022-09-04T02:41:43.462Z,939.12
2022-09-04T02:42:43.801Z,939.15
2022-09-04T02:43:44.502Z,939.15
2022-09-04T02:44:44.725Z,939.16
2022-09-04T02:45:45.623Z,939.15
2022-09-04T02:46:45.908Z,939.15
2022-09-04T02:47:46.452Z,939.11
2022-09-04T02:48:47.071Z,939.14
2022-09-04T02:49:47.697Z,939.12
2022-09-04T02:50:48.196Z,939.11
2022-09-04T02:51:48.411Z,939.11
2022-09-04T02:52:48.704Z,939.09
2022-09-04T02:53:48.993Z,939.11
2022-09-04T02:54:49.895Z,939.08
2022-09-04T02:55:50.093Z,939.08
2022-09-04T02:56:51.015Z,939.08
2022-09-04T02:57:51.224Z,939.09
2022-09-04T02:58:51.336Z,939.1
2022-09-04T02:59:51.949Z,939.12
2022-09-04T03:00:52.890Z,939.13
2022-09-04T03:01:53.351Z,939.14
2022-09-04T03:02:53.691Z,939.16
2022-09-04T03:03:54.692Z,939.15
2022-09-04T03:04:54.888Z,939.13
2022-09-04T03:05:55.804Z,939.15
2022-09-04T03:06:56.605Z,939.16
2022-09-04T03:07:56.820Z,939.15
2022-09-04T03:08:57.717Z,939.11
2022-09-04T03:09:58.228Z,939.16
2022-09-04T03:10:58.843Z,939.11
2022-09-04T03:11:59.038Z,939.14
2022-09-04T03:12:59.784Z,939.17
2022-09-04T03:14:00.775Z,939.16
2022-09-04T03:15:01.099Z,939.17
2022-09-04T03:16:02.264Z,939.16
2022-09-04T03:17:02.537Z,939.21
2022-09-04T03:18:02.761Z,939.25
2022-09-04T03:19:03.145Z,939.23
2022-09-04T03:20:04.247Z,939.25
2022-09-04T03:21:05.169Z,939.23
2022-09-04T03:22:05.371Z,939.28
2022-09-04T03:23:05.862Z,939.26
2022-09-04T03:24:06.018Z,939.28
2022-09-04T03:25:06.217Z,939.29
2022-09-04T03:26:06.716Z,939.25
2022-09-04T03:27:07.350Z,939.29
2022-09-04T03:28:08.241Z,939.29
2022-09-04T03:29:08.414Z,939.29
2022-09-04T03:30:09.057Z,939.31
2022-09-04T03:31:09.377Z,939.32
2022-09-04T03:32:15.815Z,939.33
2022-09-04T03:33:10.166Z,939.29
2022-09-04T03:34:10.305Z,939.32
2022-09-04T03:35:11.200Z,939.31
2022-09-04T03:36:12.020Z,939.32
2022-09-04T03:37:12.905Z,939.32
2022-09-04T03:38:13.533Z,939.24
2022-09-04T03:39:14.461Z,939.27
2022-09-04T03:40:15.401Z,939.31
2022-09-04T03:41:15.618Z,939.28
2022-09-04T03:42:16.601Z,939.31
2022-09-04T03:43:17.536Z,939.34
2022-09-04T03:44:18.253Z,939.32
2022-09-04T03:45:18.743Z,939.37
2022-09-04T03:46:19.406Z,939.36
2022-09-04T03:47:19.612Z,939.43
2022-09-04T03:48:19.822Z,939.43
2022-09-04T03:49:20.041Z,939.46
2022-09-04T03:50:20.847Z,939.48
2022-09-04T03:51:21.139Z,939.43
2022-09-04T03:52:21.636Z,939.46
2022-09-04T03:53:21.858Z,939.46
2022-09-04T03:54:22.551Z,939.43
2022-09-04T03:55:23.466Z,939.43
2022-09-04T03:56:23.955Z,939.44
2022-09-04T03:57:24.456Z,939.42
2022-09-04T03:58:24.996Z,939.42
2022-09-04T03:59:25.203Z,939.43
2022-09-04T04:00:25.895Z,939.46
2022-09-04T04:01:26.073Z,939.42
2022-09-04T04:02:26.400Z,939.47
2022-09-04T04:03:27.040Z,939.43
2022-09-04T04:04:28.058Z,939.49
2022-09-04T04:05:28.549Z,939.48
2022-09-04T04:06:29.553Z,939.49
2022-09-04T04:07:30.449Z,939.52
2022-09-04T04:08:31.397Z,939.49
2022-09-04T04:09:32.300Z,939.52
2022-09-04T04:10:32.589Z,939.5
2022-09-04T04:11:33.507Z,939.48
2022-09-04T04:12:33.913Z,939.55
2022-09-04T04:13:34.991Z,939.55
2022-09-04T04:14:35.991Z,939.55
2022-09-04T04:15:36.492Z,939.59
2022-09-04T04:16:36.828Z,939.56
2022-09-04T04:17:37.631Z,939.57
2022-09-04T04:18:38.550Z,939.57
2022-09-04T04:19:39.551Z,939.61
2022-09-04T04:20:40.467Z,939.6
2022-09-04T04:21:41.103Z,939.61
2022-09-04T04:22:42.028Z,939.62
2022-09-04T04:23:42.660Z,939.65
2022-09-04T04:24:43.079Z,939.65
2022-09-04T04:25:43.298Z,939.62
2022-09-04T04:26:44.057Z,939.65
2022-09-04T04:27:44.760Z,939.65
2022-09-04T04:28:45.220Z,939.7
2022-09-04T04:29:45.439Z,939.72
2022-09-04T04:30:45.636Z,939.72
2022-09-04T04:31:46.569Z,939.73
2022-09-04T04:32:47.014Z,939.75
2022-09-04T04:33:47.903Z,939.76
2022-09-04T04:34:48.340Z,939.78
2022-09-04T04:35:48.555Z,939.78
2022-09-04T04:36:48.750Z,939.75
2022-09-04T04:37:48.948Z,939.81
2022-09-04T04:38:49.166Z,939.79
2022-09-04T04:39:49.841Z,939.8
2022-09-04T04:40:50.457Z,939.8
2022-09-04T04:41:50.951Z,939.84
2022-09-04T04:42:51.173Z,939.79
2022-09-04T04:43:51.402Z,939.83
2022-09-04T04:44:51.677Z,939.85
2022-09-04T04:45:52.168Z,939.85
2022-09-04T04:46:52.506Z,939.86
2022-09-04T04:47:53.409Z,939.87
2022-09-04T04:48:54.051Z,939.85
2022-09-04T04:49:54.397Z,939.87
2022-09-04T04:50:55.292Z,939.89
2022-09-04T04:51:55.491Z,939.92
2022-09-04T04:52:56.435Z,939.97
2022-09-04T04:53:56.927Z,939.99
2022-09-04T04:54:57.355Z,940.02
2022-09-04T04:55:57.971Z,940.01
2022-09-04T04:56:58.167Z,940.02
2022-09-04T04:57:58.665Z,940.04
2022-09-04T04:58:58.885Z,940.06
2022-09-04T04:59:59.807Z,940.08
2022-09-04T05:01:00.742Z,940.1
2022-09-04T05:02:01.541Z,940.14
2022-09-04T05:03:01.724Z,940.18
2022-09-04T05:04:02.694Z,940.17
2022-09-04T05:05:03.418Z,940.17
2022-09-04T05:06:03.742Z,940.16
2022-09-04T05:07:04.363Z,940.17
2022-09-04T05:08:08.134Z,940.15
2022-09-04T05:09:05.229Z,940.15
2022-09-04T05:10:05.440Z,940.15
2022-09-04T05:11:06.375Z,940.18
2022-09-04T05:12:06.579Z,940.16
2022-09-04T05:13:07.477Z,940.25
2022-09-04T05:14:07.710Z,940.23
2022-09-04T05:15:08.435Z,940.24
2022-09-04T05:16:10.125Z,940.29
2022-09-04T05:17:09.803Z,940.29
2022-09-04T05:18:09.888Z,940.31
2022-09-04T05:19:10.388Z,940.32
2022-09-04T05:20:11.292Z,940.32
2022-09-04T05:21:12.215Z,940.34
2022-09-04T05:22:12.877Z,940.33
2022-09-04T05:23:13.372Z,940.36
2022-09-04T05:24:13.752Z,940.37
2022-09-04T05:25:14.457Z,940.35
2022-09-04T05:26:14.682Z,940.34
2022-09-04T05:27:15.277Z,940.37
2022-09-04T05:28:15.476Z,940.36
2022-09-04T05:29:16.038Z,940.4
2022-09-04T05:30:16.677Z,940.4
2022-09-04T05:31:17.375Z,940.41
2022-09-04T05:32:18.370Z,940.39
2022-09-04T05:33:18.564Z,940.36
2022-09-04T05:34:19.189Z,940.43
2022-09-04T05:35:19.999Z,940.43
2022-09-04T05:36:20.442Z,940.45
2022-09-04T05:37:20.865Z,940.46
2022-09-04T05:38:21.844Z,940.47
2022-09-04T05:39:22.250Z,940.5
2022-09-04T05:40:22.529Z,940.52
2022-09-04T05:41:23.431Z,940.52
2022-09-04T05:42:23.631Z,940.52
2022-09-04T05:43:23.845Z,940.53
2022-09-04T05:44:24.763Z,940.57
2022-09-04T05:45:25.785Z,940.57
2022-09-04T05:46:26.069Z,940.57
2022-09-04T05:47:30.428Z,940.59
2022-09-04T05:48:27.886Z,940.58
2022-09-04T05:49:28.384Z,940.65
2022-09-04T05:50:29.304Z,940.66
2022-09-04T05:51:29.923Z,940.65
2022-09-04T05:52:30.541Z,940.67
2022-09-04T05:53:30.734Z,940.68
2022-09-04T05:54:31.236Z,940.69
2022-09-04T05:55:32.265Z,940.7
2022-09-04T05:56:32.760Z,940.69
2022-09-04T05:57:33.374Z,940.74
2022-09-04T05:58:34.279Z,940.73
2022-09-04T05:59:35.203Z,940.77
2022-09-04T06:00:35.786Z,940.8
2022-09-04T06:01:36.738Z,940.83
2022-09-04T06:02:37.825Z,940.83
2022-09-04T06:03:38.250Z,940.83
2022-09-04T06:04:38.930Z,940.84
2022-09-04T06:05:39.078Z,940.83
2022-09-04T06:06:40.001Z,940.84
2022-09-04T06:07:40.938Z,940.81
2022-09-04T06:08:41.171Z,940.87
2022-09-04T06:09:41.390Z,940.84
2022-09-04T06:10:42.313Z,940.83
2022-09-04T06:11:42.830Z,940.84
2022-09-04T06:12:43.334Z,940.86
2022-09-04T06:13:43.550Z,940.86
2022-09-04T06:14:44.473Z,940.87
2022-09-04T06:15:45.525Z,940.87
2022-09-04T06:16:46.081Z,940.85
2022-09-04T06:17:46.932Z,940.88
2022-09-04T06:18:47.138Z,940.84
2022-09-04T06:19:47.771Z,940.87
2022-09-04T06:20:48.407Z,940.88
2022-09-04T06:21:48.632Z,940.9
2022-09-04T06:22:51.767Z,940.94
2022-09-04T06:23:49.672Z,940.92
2022-09-04T06:24:50.570Z,940.94
2022-09-04T06:25:50.839Z,940.96
2022-09-04T06:26:51.905Z,941.02
2022-09-04T06:27:52.401Z,940.98
2022-09-04T06:28:52.622Z,940.96
2022-09-04T06:29:52.879Z,941.04
2022-09-04T06:30:53.560Z,941.08
2022-09-04T06:31:54.160Z,941.05
2022-09-04T06:32:54.760Z,941.1
2022-09-04T06:33:55.097Z,941.12
2022-09-04T06:34:56.039Z,941.14
2022-09-04T06:35:56.761Z,941.18
2022-09-04T06:36:57.660Z,941.12
2022-09-04T06:37:57.875Z,941.16
2022-09-04T06:38:58.508Z,941.12
2022-09-04T06:39:59.245Z,941.17
2022-09-04T06:40:59.470Z,941.19
2022-09-04T06:41:59.969Z,941.16
2022-09-04T06:43:00.197Z,941.19
2022-09-04T06:44:00.421Z,941.18
2022-09-04T06:45:01.219Z,941.21
2022-09-04T06:46:02.576Z,941.2
2022-09-04T06:47:02.150Z,941.2
2022-09-04T06:48:02.770Z,941.24
2022-09-04T06:49:03.868Z,941.24
2022-09-04T06:50:04.509Z,941.26
2022-09-04T06:51:05.429Z,941.23
2022-09-04T06:52:05.766Z,941.23
2022-09-04T06:53:05.927Z,941.2
2022-09-04T06:54:06.943Z,941.24
2022-09-04T06:55:07.097Z,941.23
2022-09-04T06:56:07.285Z,941.24
2022-09-04T06:57:07.481Z,941.24
2022-09-04T06:58:07.688Z,941.3
2022-09-04T06:59:07.833Z,941.3
2022-09-04T07:00:08.759Z,941.31
2022-09-04T07:01:09.467Z,941.33
2022-09-04T07:02:10.196Z,941.3
2022-09-04T07:03:11.016Z,941.32
2022-09-04T07:04:11.370Z,941.27
2022-09-04T07:05:12.277Z,941.28
2022-09-04T07:06:12.456Z,941.25
2022-09-04T07:07:12.999Z,941.28
2022-09-04T07:08:13.211Z,941.32
2022-09-04T07:09:13.692Z,941.27
2022-09-04T07:10:14.607Z,941.33
2022-09-04T07:11:15.233Z,941.34
2022-09-04T07:12:15.729Z,941.33
2022-09-04T07:13:16.336Z,941.34
2022-09-04T07:14:17.288Z,941.35
2022-09-04T07:15:17.499Z,941.34
2022-09-04T07:16:18.160Z,941.37
2022-09-04T07:17:19.136Z,941.35
2022-09-04T07:18:19.440Z,941.43
2022-09-04T07:19:20.011Z,941.4
2022-09-04T07:20:20.936Z,941.46
2022-09-04T07:21:21.885Z,941.39
2022-09-04T07:22:22.122Z,941.47
2022-09-04T07:23:22.752Z,941.47
2022-09-04T07:24:23.097Z,941.45
2022-09-04T07:25:23.321Z,941.48
2022-09-04T07:26:24.308Z,941.45
2022-09-04T07:27:25.236Z,941.47
2022-09-04T07:28:25.947Z,941.46
2022-09-04T07:29:26.258Z,941.45
2022-09-04T07:30:26.455Z,941.45
2022-09-04T07:31:27.459Z,941.49
2022-09-04T07:32:28.080Z,941.48
2022-09-04T07:33:28.213Z,941.48
2022-09-04T07:34:28.560Z,941.52
2022-09-04T07:35:29.204Z,941.56
2022-09-04T07:36:31.823Z,941.53
2022-09-04T07:37:30.134Z,941.54
2022-09-04T07:38:30.390Z,941.59
2022-09-04T07:39:31.464Z,941.59
2022-09-04T07:40:32.270Z,941.61
2022-09-04T07:41:32.740Z,941.61
2022-09-04T07:42:32.959Z,941.63
2022-09-04T07:43:33.276Z,941.64
2022-09-04T07:44:33.918Z,941.68
2022-09-04T07:45:34.546Z,941.65
2022-09-04T07:46:35.146Z,941.69
2022-09-04T07:47:35.980Z,941.67
2022-09-04T07:48:36.605Z,941.68
2022-09-04T07:49:37.512Z,941.69
2022-09-04T07:50:38.012Z,941.7
2022-09-04T07:51:38.790Z,941.75
2022-09-04T07:52:39.106Z,941.73
2022-09-04T07:53:40.023Z,941.75
2022-09-04T07:54:40.644Z,941.76
2022-09-04T07:55:41.567Z,941.75
2022-09-04T07:56:42.578Z,941.75
2022-09-04T07:57:42.806Z,941.76
2022-09-04T07:58:43.027Z,941.78
2022-09-04T07:59:43.342Z,941.79
2022-09-04T08:00:44.266Z,941.8
2022-09-04T08:01:45.244Z,941.82
2022-09-04T08:02:45.883Z,941.83
2022-09-04T08:03:49.146Z,941.81
2022-09-04T08:04:47.335Z,941.82
2022-09-04T08:05:47.718Z,941.8
2022-09-04T08:06:48.150Z,941.83
2022-09-04T08:07:48.426Z,941.84
2022-09-04T08:08:49.072Z,941.87
2022-09-04T08:09:50.059Z,941.87
2022-09-04T08:10:50.962Z,941.87
2022-09-04T08:11:51.890Z,941.9
2022-09-04T08:12:52.159Z,941.87
2022-09-04T08:13:52.379Z,941.88
2022-09-04T08:14:52.606Z,941.85
2022-09-04T08:15:53.567Z,941.86
2022-09-04T08:16:53.864Z,941.9
2022-09-04T08:17:54.090Z,941.88
2022-09-04T08:18:54.716Z,941.9
2022-09-04T08:19:55.314Z,941.9
2022-09-04T08:20:55.538Z,941.9
2022-09-04T08:21:56.035Z,941.95
2022-09-04T08:22:56.258Z,941.95
2022-09-04T08:23:56.759Z,941.92
2022-09-04T08:24:57.204Z,941.96
2022-09-04T08:25:57.889Z,941.97
2022-09-04T08:26:58.187Z,941.97
2022-09-04T08:27:59.092Z,941.99
2022-09-04T08:28:59.353Z,941.99
2022-09-04T08:30:00.018Z,941.98
2022-09-04T08:31:00.966Z,941.96
2022-09-04T08:32:01.555Z,941.98
2022-09-04T08:33:02.066Z,941.98
2022-09-04T08:34:03.096Z,942.01
2022-09-04T08:35:03.740Z,942.01
2022-09-04T08:36:04.685Z,941.99
2022-09-04T08:37:05.499Z,941.98
2022-09-04T08:38:06.347Z,941.99
2022-09-04T08:39:07.434Z,942
2022-09-04T08:40:06.926Z,942.02
2022-09-04T08:41:07.221Z,942.05
2022-09-04T08:42:08.146Z,942.07
2022-09-04T08:43:09.067Z,942.04
2022-09-04T08:44:09.990Z,942.05
2022-09-04T08:45:10.325Z,942.03
2022-09-04T08:46:10.995Z,942.07
2022-09-04T08:47:11.919Z,942.06
2022-09-04T08:48:12.084Z,942.07
2022-09-04T08:49:12.876Z,942.08
2022-09-04T08:50:13.508Z,942.07
2022-09-04T08:51:14.434Z,942.1
2022-09-04T08:52:15.150Z,942.11
2022-09-04T08:53:15.608Z,942.11
2022-09-04T08:54:15.982Z,942.12
2022-09-04T08:55:16.882Z,942.12
2022-09-04T08:56:17.111Z,942.14
2022-09-04T08:57:17.701Z,942.16
2022-09-04T08:58:18.385Z,942.16
2022-09-04T08:59:19.192Z,942.19
2022-09-04T09:00:19.534Z,942.22
2022-09-04T09:01:20.507Z,942.2
2022-09-04T09:02:21.549Z,942.21
2022-09-04T09:03:22.017Z,942.21
2022-09-04T09:04:22.944Z,942.15
2022-09-04T09:05:24.022Z,942.16
2022-09-04T09:06:24.724Z,942.15
2022-09-04T09:07:25.020Z,942.14
2022-09-04T09:08:28.567Z,942.16
2022-09-04T09:09:25.892Z,942.13
2022-09-04T09:10:26.246Z,942.11
2022-09-04T09:11:26.878Z,942.11
2022-09-04T09:12:27.814Z,942.1
2022-09-04T09:13:28.717Z,942.13
2022-09-04T09:14:29.347Z,942.14
2022-09-04T09:15:30.273Z,942.17
2022-09-04T09:16:30.569Z,942.15
2022-09-04T09:17:34.403Z,942.11
2022-09-04T09:18:31.838Z,942.18
2022-09-04T09:19:32.712Z,942.17
2022-09-04T09:20:33.359Z,942.24
2022-09-04T09:21:33.864Z,942.26
2022-09-04T09:22:34.497Z,942.19
2022-09-04T09:23:35.405Z,942.24
2022-09-04T09:24:35.908Z,942.26
2022-09-04T09:25:38.989Z,942.32
2022-09-04T09:26:37.371Z,942.25
2022-09-04T09:27:38.151Z,942.25
2022-09-04T09:28:39.085Z,942.28
2022-09-04T09:29:39.787Z,942.28
2022-09-04T09:30:40.230Z,942.28
2022-09-04T09:31:40.486Z,942.25
2022-09-04T09:32:41.332Z,942.27
2022-09-04T09:33:41.948Z,942.25
2022-09-04T09:34:42.976Z,942.2
2022-09-04T09:35:43.613Z,942.17
2022-09-04T09:36:44.247Z,942.19
2022-09-04T09:37:45.261Z,942.17
2022-09-04T09:38:46.091Z,942.19
2022-09-04T09:39:47.053Z,942.23
2022-09-04T09:40:47.816Z,942.26
2022-09-04T09:41:48.467Z,942.25
2022-09-04T09:42:49.403Z,942.24
2022-09-04T09:43:49.909Z,942.24
2022-09-04T09:44:50.092Z,942.22
2022-09-04T09:46:51.182Z,942.2
2022-09-04T09:47:52.178Z,942.26
2022-09-04T09:48:52.735Z,942.28
2022-09-04T09:49:52.887Z,942.28
2022-09-04T09:50:53.126Z,942.29
2022-09-04T09:51:53.361Z,942.29
2022-09-04T09:52:54.292Z,942.3
2022-09-04T09:53:54.522Z,942.31
2022-09-04T09:54:54.861Z,942.29
2022-09-04T09:55:55.499Z,942.28
2022-09-04T09:56:56.437Z,942.22
2022-09-04T09:57:57.024Z,942.26
2022-09-04T09:58:57.227Z,942.26
2022-09-04T09:59:57.464Z,942.25
2022-09-04T10:00:57.714Z,942.25
2022-09-04T10:01:58.538Z,942.24
2022-09-04T10:02:59.495Z,942.27
2022-09-04T10:03:59.711Z,942.28
2022-09-04T10:05:00.650Z,942.26
2022-09-04T10:06:01.585Z,942.26
2022-09-04T10:07:02.106Z,942.22
2022-09-04T10:08:02.240Z,942.21
2022-09-04T10:09:05.948Z,942.18
2022-09-04T10:10:03.515Z,942.18
2022-09-04T10:11:04.520Z,942.2
2022-09-04T10:12:05.428Z,942.25
2022-09-04T10:13:06.365Z,942.21
2022-09-04T10:14:07.347Z,942.19
2022-09-04T10:15:07.881Z,942.23
2022-09-04T10:16:08.148Z,942.26
2022-09-04T10:17:08.998Z,942.23
2022-09-04T10:18:09.711Z,942.21
2022-09-04T10:19:10.343Z,942.21
2022-09-04T10:20:10.558Z,942.19
2022-09-04T10:21:11.223Z,942.21
2022-09-04T10:22:12.150Z,942.24
2022-09-04T10:23:12.803Z,942.17
2022-09-04T10:24:13.547Z,942.16
2022-09-04T10:25:14.472Z,942.16
2022-09-04T10:26:14.680Z,942.15
2022-09-04T10:27:15.555Z,942.15
2022-09-04T10:28:16.565Z,942.14
2022-09-04T10:29:17.523Z,942.17
2022-09-04T10:30:18.476Z,942.19
2022-09-04T10:31:18.754Z,942.21
2022-09-04T10:32:19.405Z,942.19
2022-09-04T10:33:19.631Z,942.21
2022-09-04T10:34:20.632Z,942.22
2022-09-04T10:35:21.290Z,942.2
2022-09-04T10:36:22.397Z,942.19
2022-09-04T10:37:23.309Z,942.18
2022-09-04T10:39:24.569Z,942.19
2022-09-04T10:40:25.028Z,942.19
2022-09-04T10:41:25.624Z,942.21
2022-09-04T10:42:26.559Z,942.18
2022-09-04T10:43:27.500Z,942.15
2022-09-04T10:44:28.131Z,942.15
2022-09-04T10:45:28.781Z,942.16
2022-09-04T10:46:29.773Z,942.15
2022-09-04T10:47:30.726Z,942.17
2022-09-04T10:48:31.805Z,942.15
2022-09-04T10:49:32.166Z,942.2
2022-09-04T10:50:33.101Z,942.17
2022-09-04T10:51:33.455Z,942.18
2022-09-04T10:52:34.408Z,942.21
2022-09-04T10:53:34.770Z,942.2
2022-09-04T10:54:34.999Z,942.19
2022-09-04T10:56:35.889Z,942.21
2022-09-04T11:00:37.711Z,942.18
2022-09-04T11:01:38.639Z,942.18
2022-09-04T11:02:39.494Z,942.12
2022-09-04T11:03:39.914Z,942.13
2022-09-04T11:04:40.128Z,942.1
2022-09-04T11:05:40.589Z,942.12
2022-09-04T11:06:41.214Z,942.13
2022-09-04T11:07:41.447Z,942.12
2022-09-04T11:08:42.447Z,942.13
2022-09-04T11:09:42.670Z,942.11
2022-09-04T11:10:43.586Z,942.1
2022-09-04T11:11:44.103Z,942.09
2022-09-04T11:12:44.340Z,942.14
2022-09-04T11:13:47.028Z,942.07
2022-09-04T11:14:44.918Z,942.08
2022-09-04T11:15:45.848Z,942.04
2022-09-04T11:16:46.448Z,942.12
2022-09-04T11:17:46.887Z,942.14
2022-09-04T11:18:47.371Z,942.15
2022-09-04T11:19:47.883Z,942.13
2022-09-04T11:20:48.841Z,942.17
2022-09-04T11:21:49.757Z,942.14
2022-09-04T11:22:50.653Z,942.15
2022-09-04T11:23:51.445Z,942.14
2022-09-04T11:24:51.907Z,942.11
2022-09-04T11:25:52.919Z,942.12
2022-09-04T11:26:53.960Z,942.08
2022-09-04T11:27:54.094Z,942.08
2022-09-04T11:28:54.433Z,942.09
2022-09-04T11:29:55.018Z,942.05
2022-09-04T11:30:55.653Z,942.05
2022-09-04T11:31:56.247Z,942.05
2022-09-04T11:32:56.789Z,942
2022-09-04T11:33:56.928Z,942.03
2022-09-04T11:34:57.935Z,942.04
2022-09-04T11:35:58.181Z,942.02
2022-09-04T11:36:58.794Z,942.04
2022-09-04T11:37:59.706Z,942.06
2022-09-04T11:39:00.000Z,942.02
2022-09-04T11:40:00.319Z,942.05
2022-09-04T11:41:00.825Z,942.04
2022-09-04T11:42:01.337Z,941.94
2022-09-04T11:43:02.269Z,941.98
2022-09-04T11:44:03.282Z,941.99
2022-09-04T11:45:03.520Z,941.99
2022-09-04T11:46:04.201Z,941.99
2022-09-04T11:47:04.384Z,941.98
2022-09-04T11:48:05.316Z,941.97
2022-09-04T11:49:05.900Z,942
2022-09-04T11:50:06.513Z,941.96
2022-09-04T11:51:06.779Z,942.02
2022-09-04T11:52:07.716Z,942
2022-09-04T11:53:08.374Z,942.04
2022-09-04T11:54:09.440Z,941.98
2022-09-04T11:55:09.974Z,941.95
2022-09-04T11:56:10.976Z,941.96
2022-09-04T11:57:11.610Z,941.97
2022-09-04T11:58:12.673Z,941.99
2022-09-04T11:59:13.091Z,942.02
2022-09-04T12:00:14.025Z,941.95
2022-09-04T12:01:14.234Z,941.95
2022-09-04T12:02:15.198Z,941.92
2022-09-04T12:03:15.948Z,941.92
2022-09-04T12:04:17.037Z,941.93
2022-09-04T12:05:17.588Z,941.92
2022-09-04T12:06:18.102Z,941.92
2022-09-04T12:07:19.047Z,941.93
2022-09-04T12:08:19.826Z,941.95
2022-09-04T12:09:19.960Z,941.97
2022-09-04T12:10:20.898Z,942.02
2022-09-04T12:11:21.483Z,942.03
2022-09-04T12:12:22.417Z,941.99
2022-09-04T12:13:22.666Z,942
2022-09-04T12:14:23.071Z,942.02
2022-09-04T12:15:24.072Z,941.98
2022-09-04T12:16:24.289Z,941.92
2022-09-04T12:17:25.087Z,941.94
2022-09-04T12:18:26.020Z,941.98
2022-09-04T12:19:27.020Z,941.94
2022-09-04T12:20:27.219Z,941.99
2022-09-04T12:21:27.857Z,941.95
2022-09-04T12:22:28.367Z,941.94
2022-09-04T12:23:28.881Z,941.93
2022-09-04T12:24:29.809Z,941.93
2022-09-04T12:25:30.018Z,941.91
2022-09-04T12:26:30.963Z,941.91
2022-09-04T12:27:31.642Z,941.94
2022-09-04T12:28:31.848Z,941.92
2022-09-04T12:29:32.680Z,941.91
2022-09-04T12:30:33.615Z,941.93
2022-09-04T12:31:34.624Z,941.98
2022-09-04T12:32:35.607Z,941.99
2022-09-04T12:33:36.527Z,941.97
2022-09-04T12:34:36.757Z,941.97
2022-09-04T12:35:37.670Z,941.94
2022-09-04T12:36:37.898Z,941.96
2022-09-04T12:37:38.623Z,941.91
2022-09-04T12:38:39.131Z,941.92
2022-09-04T12:39:40.080Z,941.95
2022-09-04T12:40:40.746Z,941.96
2022-09-04T12:41:40.978Z,941.95
2022-09-04T12:42:41.309Z,941.97
2022-09-04T12:43:41.944Z,941.95
2022-09-04T12:44:42.280Z,941.94